Time;durP1;ratioP1;P1;durP2;ratioP2;P2;SDS_P1;SDS_P2;PMS_P1;PMS_P2;Temp;Humidity;BMP_temperature;BMP_pressure;BME280_temperature;BME280_humidity;BME280_pressure;Samples;Min_cycle;Max_cycle;Signal;HPM_P1;HPM_P2
2022/12/24 00:01:54;;;;;;;;;;;10.80;99.90;;;;;;4956570;28;19926;-63
2022/12/24 00:04:24;;;;;;;;;;;10.90;99.90;;;;;;4969598;28;19953;-63
2022/12/24 00:06:51;;;;;;;;;;;10.90;99.90;;;;;;4970008;28;19933;-63
2022/12/24 00:09:19;;;;;;;;;;;10.90;99.90;;;;;;4970159;28;20456;-63
2022/12/24 00:11:47;;;;;;;;;;;10.90;99.90;;;;;;4968865;28;20325;-63
2022/12/24 00:14:14;;;;;;;;;;;11.00;99.90;;;;;;4969909;28;19930;-62
2022/12/24 00:16:42;;;;;;;;;;;10.90;99.90;;;;;;4970349;28;20021;-63
2022/12/24 00:19:10;;;;;;;;;;;10.90;99.90;;;;;;4967794;28;19926;-63
2022/12/24 00:21:39;;;;;;;;;;;10.90;99.90;;;;;;4962906;28;19932;-63
2022/12/24 00:24:06;;;;;;;;;;;10.90;99.90;;;;;;4967221;28;19926;-63
2022/12/24 00:26:35;;;;;;;;;;;10.80;99.90;;;;;;4963739;28;19930;-62
2022/12/24 00:29:03;;;;;;;;;;;10.80;99.90;;;;;;4966878;28;20335;-63
2022/12/24 00:31:31;;;;;;;;;;;10.70;99.90;;;;;;4963919;28;19932;-62
2022/12/24 00:33:59;;;;;;;;;;;10.70;99.90;;;;;;4964722;28;19949;-62
2022/12/24 00:36:27;;;;;;;;;;;10.80;99.90;;;;;;4983121;22;20025;-65
2022/12/24 00:38:56;;;;;;;;;;;10.70;99.90;;;;;;4954158;28;19972;-65
2022/12/24 00:41:27;;;;;;;;;;;10.70;99.90;;;;;;4955270;28;19945;-65
2022/12/24 00:43:56;;;;;;;;;;;10.60;99.90;;;;;;4948738;28;19936;-66
2022/12/24 00:46:25;;;;;;;;;;;10.70;99.90;;;;;;4951965;28;19927;-66
2022/12/24 00:48:53;;;;;;;;;;;10.60;99.90;;;;;;4950073;28;19926;-66
2022/12/24 00:51:21;;;;;;;;;;;10.60;99.90;;;;;;4948887;28;20021;-65
2022/12/24 00:53:49;;;;;;;;;;;10.60;99.90;;;;;;4947244;29;19927;-66
2022/12/24 00:56:18;;;;;;;;;;;10.50;99.90;;;;;;4952795;29;19941;-65
2022/12/24 00:58:46;;;;;;;;;;;10.50;99.90;;;;;;4946672;28;20298;-66
2022/12/24 01:01:14;;;;;;;;;;;10.50;99.90;;;;;;4953209;29;20021;-65
2022/12/24 01:03:42;;;;;;;;;;;10.40;99.90;;;;;;4952604;28;19972;-66
2022/12/24 01:06:11;;;;;;;;;;;10.30;99.90;;;;;;4952953;28;19926;-66
2022/12/24 01:08:38;;;;;;;;;;;10.30;99.90;;;;;;4950267;28;19984;-65
2022/12/24 01:11:07;;;;;;;;;;;10.30;99.90;;;;;;4945416;28;20017;-66
2022/12/24 01:13:36;;;;;;;;;;;10.30;99.90;;;;;;4948002;28;19927;-65
2022/12/24 01:16:11;;;;;;;;;;;10.20;99.90;;;;;;4944324;28;19927;-66
2022/12/24 01:18:39;;;;;;;;;;;10.30;99.90;;;;;;4949084;28;19989;-65
2022/12/24 01:21:07;;;;;;;;;;;10.20;99.90;;;;;;4949812;28;19957;-66
2022/12/24 01:23:34;;;;;;;;;;;10.20;99.90;;;;;;4950123;28;20462;-66
2022/12/24 01:26:03;;;;;;;;;;;10.20;99.90;;;;;;4953106;29;19980;-65
2022/12/24 01:28:31;;;;;;;;;;;10.20;99.90;;;;;;4945040;29;20017;-66
2022/12/24 01:31:00;;;;;;;;;;;10.20;99.90;;;;;;4952460;29;20256;-65
2022/12/24 01:33:28;;;;;;;;;;;10.10;99.90;;;;;;4952889;29;19926;-65
2022/12/24 01:35:56;;;;;;;;;;;10.00;99.90;;;;;;4952707;29;20021;-65
2022/12/24 01:38:23;;;;;;;;;;;9.90;99.90;;;;;;4950195;28;19949;-66
2022/12/24 01:43:35;;;;;;;;;;;9.80;99.90;;;;;;4969018;28;20521;-65
2022/12/24 01:46:07;;;;;;;;;;;9.70;99.90;;;;;;4951198;28;20363;-65
2022/12/24 01:48:37;;;;;;;;;;;9.70;99.90;;;;;;4947548;28;19930;-65
2022/12/24 01:51:08;;;;;;;;;;;9.60;99.90;;;;;;4943182;28;19973;-66
2022/12/24 01:53:37;;;;;;;;;;;9.70;99.90;;;;;;4951017;28;19927;-65
2022/12/24 01:56:06;;;;;;;;;;;9.70;99.90;;;;;;4945780;28;19934;-65
2022/12/24 01:58:35;;;;;;;;;;;9.70;99.90;;;;;;4947719;28;19933;-65
2022/12/24 02:01:04;;;;;;;;;;;9.60;99.90;;;;;;4947677;28;20017;-65
2022/12/24 02:03:32;;;;;;;;;;;9.60;99.90;;;;;;4949073;28;19935;-66
2022/12/24 02:06:00;;;;;;;;;;;9.60;99.90;;;;;;4949536;28;19969;-65
2022/12/24 02:08:38;;;;;;;;;;;9.60;99.90;;;;;;4947882;28;19931;-66
2022/12/24 02:11:10;;;;;;;;;;;9.50;99.90;;;;;;4948804;28;19926;-66
2022/12/24 02:13:38;;;;;;;;;;;9.60;99.90;;;;;;4949277;28;19984;-66
2022/12/24 02:16:12;;;;;;;;;;;9.70;99.90;;;;;;4949313;28;20029;-66
2022/12/24 02:18:43;;;;;;;;;;;9.70;99.90;;;;;;4949252;28;19933;-65
2022/12/24 02:21:32;;;;;;;;;;;9.60;99.90;;;;;;4949770;28;20384;-66
2022/12/24 02:24:11;;;;;;;;;;;9.60;99.90;;;;;;4951593;28;20493;-65
2022/12/24 02:26:51;;;;;;;;;;;9.50;99.90;;;;;;4951421;28;19927;-63
2022/12/24 02:29:27;;;;;;;;;;;9.50;99.90;;;;;;4945658;28;19934;-63
2022/12/24 02:31:58;;;;;;;;;;;9.50;99.90;;;;;;4944845;28;19926;-63
2022/12/24 02:34:30;;;;;;;;;;;9.50;99.90;;;;;;4948686;28;19926;-63
2022/12/24 02:37:00;;;;;;;;;;;9.50;99.90;;;;;;4946994;28;20036;-64
2022/12/24 02:39:31;;;;;;;;;;;9.40;99.90;;;;;;4948611;28;19927;-63
2022/12/24 02:42:05;;;;;;;;;;;9.40;99.90;;;;;;4945677;28;20037;-63
2022/12/24 02:44:36;;;;;;;;;;;9.40;99.90;;;;;;4939322;29;19926;-66
2022/12/24 02:47:06;;;;;;;;;;;9.40;99.90;;;;;;4944899;28;20402;-65
2022/12/24 02:49:34;;;;;;;;;;;9.40;99.90;;;;;;4947719;28;20462;-65
2022/12/24 02:52:02;;;;;;;;;;;9.40;99.90;;;;;;4948855;28;19977;-65
2022/12/24 02:54:30;;;;;;;;;;;9.20;99.90;;;;;;4949738;28;20696;-65
2022/12/24 02:57:06;;;;;;;;;;;9.30;99.90;;;;;;4948082;28;19948;-65
2022/12/24 02:59:51;;;;;;;;;;;9.10;99.90;;;;;;4945451;29;20379;-65
2022/12/24 03:02:24;;;;;;;;;;;9.10;99.90;;;;;;4950305;28;19931;-65
2022/12/24 03:04:57;;;;;;;;;;;9.10;99.90;;;;;;4947507;28;19988;-66
2022/12/24 03:07:29;;;;;;;;;;;9.10;99.90;;;;;;4945707;28;20395;-66
2022/12/24 03:10:03;;;;;;;;;;;9.10;99.90;;;;;;4947518;28;19926;-65
2022/12/24 03:12:33;;;;;;;;;;;9.10;99.90;;;;;;4947018;28;20402;-65
2022/12/24 03:15:01;;;;;;;;;;;9.20;99.90;;;;;;4946406;28;20391;-65
2022/12/24 03:17:31;;;;;;;;;;;9.30;99.90;;;;;;4947711;28;20369;-65
2022/12/24 03:19:59;;;;;;;;;;;9.30;99.90;;;;;;4946066;28;19934;-65
2022/12/24 03:22:27;;;;;;;;;;;9.40;99.90;;;;;;4948255;28;20324;-65
2022/12/24 03:24:55;;;;;;;;;;;9.30;99.90;;;;;;4947345;28;19934;-65
2022/12/24 03:27:25;;;;;;;;;;;9.30;99.90;;;;;;4947863;28;19945;-65
2022/12/24 03:29:52;;;;;;;;;;;9.40;99.90;;;;;;4947191;28;19933;-62
2022/12/24 03:32:23;;;;;;;;;;;9.30;99.90;;;;;;4947461;28;20411;-62
2022/12/24 03:34:52;;;;;;;;;;;9.30;99.90;;;;;;4948225;28;19933;-65
2022/12/24 03:37:20;;;;;;;;;;;9.30;99.90;;;;;;4947252;28;19981;-66
2022/12/24 03:39:48;;;;;;;;;;;9.30;99.90;;;;;;4945116;28;20429;-65
2022/12/24 03:42:16;;;;;;;;;;;9.40;99.90;;;;;;4946261;28;20620;-65
2022/12/24 03:44:43;;;;;;;;;;;9.40;99.90;;;;;;4948372;28;19933;-65
2022/12/24 03:47:11;;;;;;;;;;;9.50;99.90;;;;;;4945674;28;20395;-66
2022/12/24 03:49:39;;;;;;;;;;;9.50;99.90;;;;;;4947251;28;19931;-65
2022/12/24 03:52:08;;;;;;;;;;;9.50;99.90;;;;;;4945525;28;19949;-65
2022/12/24 03:54:36;;;;;;;;;;;9.60;99.90;;;;;;4944321;28;19933;-65
2022/12/24 03:57:03;;;;;;;;;;;9.60;99.90;;;;;;4947562;28;19934;-65
2022/12/24 03:59:31;;;;;;;;;;;9.60;99.90;;;;;;4944601;28;19949;-65
2022/12/24 04:01:58;;;;;;;;;;;9.60;99.90;;;;;;4947175;28;20008;-66
2022/12/24 04:04:27;;;;;;;;;;;9.60;99.90;;;;;;4945523;28;19927;-65
2022/12/24 04:06:54;;;;;;;;;;;9.60;99.90;;;;;;4947121;28;19926;-65
2022/12/24 04:09:23;;;;;;;;;;;9.70;99.90;;;;;;4948738;28;20383;-66
2022/12/24 04:11:51;;;;;;;;;;;9.70;99.90;;;;;;4944505;28;19927;-65
2022/12/24 04:14:18;;;;;;;;;;;9.70;99.90;;;;;;4946303;28;19926;-66
2022/12/24 04:16:46;;;;;;;;;;;9.70;99.90;;;;;;4943700;28;20025;-65
2022/12/24 04:19:14;;;;;;;;;;;9.80;99.90;;;;;;4946850;28;19927;-65
2022/12/24 04:21:42;;;;;;;;;;;9.80;99.90;;;;;;4930542;29;19934;-65
2022/12/24 04:24:10;;;;;;;;;;;9.80;99.90;;;;;;4939344;28;20024;-65
2022/12/24 04:26:39;;;;;;;;;;;9.80;99.90;;;;;;4941133;29;20417;-65
2022/12/24 04:29:06;;;;;;;;;;;9.80;99.90;;;;;;4934805;28;20384;-65
2022/12/24 04:31:34;;;;;;;;;;;9.80;99.90;;;;;;4948397;29;19926;-66
2022/12/24 04:34:02;;;;;;;;;;;9.80;99.90;;;;;;4949054;29;19926;-66
2022/12/24 04:36:30;;;;;;;;;;;9.80;99.90;;;;;;4948237;29;20446;-66
2022/12/24 04:38:57;;;;;;;;;;;9.80;99.90;;;;;;4948662;29;19930;-65
2022/12/24 04:41:25;;;;;;;;;;;9.80;99.90;;;;;;4944001;28;19927;-65
2022/12/24 04:43:54;;;;;;;;;;;9.80;99.90;;;;;;4930742;29;20009;-65
2022/12/24 04:46:23;;;;;;;;;;;9.80;99.90;;;;;;4933036;29;19934;-65
2022/12/24 04:48:52;;;;;;;;;;;9.90;99.90;;;;;;4930823;29;20392;-65
2022/12/24 04:51:20;;;;;;;;;;;9.80;99.90;;;;;;4930157;28;19954;-66
2022/12/24 04:53:47;;;;;;;;;;;9.90;99.90;;;;;;4930786;28;20025;-66
2022/12/24 04:56:17;;;;;;;;;;;9.80;99.90;;;;;;4936054;28;20033;-65
2022/12/24 04:58:45;;;;;;;;;;;9.80;99.90;;;;;;4945877;29;19927;-66
2022/12/24 05:01:14;;;;;;;;;;;9.70;99.90;;;;;;4947657;28;20033;-66
2022/12/24 05:03:42;;;;;;;;;;;9.80;99.90;;;;;;4948549;29;19976;-65
2022/12/24 05:06:11;;;;;;;;;;;9.80;99.90;;;;;;4948414;29;20485;-65
2022/12/24 05:08:39;;;;;;;;;;;9.80;99.90;;;;;;4945348;29;20009;-64
2022/12/24 05:11:07;;;;;;;;;;;9.80;99.90;;;;;;4931228;29;19934;-65
2022/12/24 05:13:35;;;;;;;;;;;9.70;99.90;;;;;;4930092;28;19933;-65
2022/12/24 05:16:15;;;;;;;;;;;9.70;99.90;;;;;;4942326;28;20053;-65
2022/12/24 05:18:42;;;;;;;;;;;9.70;99.90;;;;;;4948149;29;19955;-65
2022/12/24 05:21:11;;;;;;;;;;;9.70;99.90;;;;;;4944784;29;20017;-65
2022/12/24 05:26:27;;;;;;;;;;;9.50;99.90;;;;;;4950342;28;19961;-65
2022/12/24 05:28:56;;;;;;;;;;;9.50;99.90;;;;;;4950564;28;20523;-65
2022/12/24 05:31:26;;;;;;;;;;;9.50;99.90;;;;;;4947238;28;20465;-65
2022/12/24 05:33:54;;;;;;;;;;;9.50;99.90;;;;;;4950948;28;19926;-65
2022/12/24 05:36:22;;;;;;;;;;;9.50;99.90;;;;;;4948660;28;19942;-65
2022/12/24 05:38:50;;;;;;;;;;;9.40;99.90;;;;;;4951383;28;19932;-65
2022/12/24 05:41:18;;;;;;;;;;;9.40;99.90;;;;;;4948628;28;19970;-65
2022/12/24 05:43:46;;;;;;;;;;;9.40;99.90;;;;;;4950048;28;19926;-65
2022/12/24 05:46:15;;;;;;;;;;;9.40;99.90;;;;;;4948925;28;19927;-65
2022/12/24 05:48:44;;;;;;;;;;;9.40;99.90;;;;;;4949784;28;19935;-65
2022/12/24 05:51:12;;;;;;;;;;;9.50;99.90;;;;;;4948124;28;19934;-65
2022/12/24 05:53:40;;;;;;;;;;;9.50;99.90;;;;;;4949068;28;19930;-66
2022/12/24 05:56:09;;;;;;;;;;;9.50;99.90;;;;;;4947397;28;19966;-64
2022/12/24 05:58:37;;;;;;;;;;;9.50;99.90;;;;;;4942720;28;19926;-65
2022/12/24 06:01:05;;;;;;;;;;;9.60;99.90;;;;;;4949265;28;19927;-64
2022/12/24 06:03:34;;;;;;;;;;;9.60;99.90;;;;;;4944158;28;19988;-65
2022/12/24 06:06:05;;;;;;;;;;;9.70;99.90;;;;;;4944967;28;20021;-64
2022/12/24 06:08:33;;;;;;;;;;;9.80;99.90;;;;;;4950481;29;19938;-65
2022/12/24 06:11:03;;;;;;;;;;;9.90;99.90;;;;;;4935148;28;20398;-64
2022/12/24 06:13:31;;;;;;;;;;;9.70;99.90;;;;;;4936804;28;20025;-65
2022/12/24 06:15:59;;;;;;;;;;;9.80;99.90;;;;;;4938859;28;20404;-64
2022/12/24 06:18:26;;;;;;;;;;;9.80;99.90;;;;;;4952661;29;20427;-65
2022/12/24 06:20:55;;;;;;;;;;;9.70;99.90;;;;;;4943944;28;20303;-65
2022/12/24 06:23:24;;;;;;;;;;;9.70;99.90;;;;;;4946940;28;20394;-65
2022/12/24 06:25:52;;;;;;;;;;;9.60;99.90;;;;;;4948359;28;19934;-65
2022/12/24 06:28:20;;;;;;;;;;;9.60;99.90;;;;;;4948865;28;20021;-65
2022/12/24 06:30:48;;;;;;;;;;;9.60;99.90;;;;;;4947704;28;20392;-65
2022/12/24 06:33:16;;;;;;;;;;;9.60;99.90;;;;;;4948763;28;19926;-65
2022/12/24 06:35:51;;;;;;;;;;;9.60;99.90;;;;;;4947353;28;20280;-67
2022/12/24 06:38:19;;;;;;;;;;;9.60;99.90;;;;;;4908646;28;19962;-63
2022/12/24 06:40:48;;;;;;;;;;;9.60;99.90;;;;;;4913101;28;20030;-63
2022/12/24 06:43:16;;;;;;;;;;;9.60;99.90;;;;;;4945022;28;19925;-63
2022/12/24 06:45:44;;;;;;;;;;;9.70;99.90;;;;;;4914303;28;20018;-62
2022/12/24 06:48:12;;;;;;;;;;;9.70;99.90;;;;;;4910040;28;20026;-62
2022/12/24 06:50:40;;;;;;;;;;;9.70;99.90;;;;;;4911837;28;19932;-62
2022/12/24 06:53:08;;;;;;;;;;;9.70;99.90;;;;;;4908386;28;19937;-63
2022/12/24 06:55:36;;;;;;;;;;;9.70;99.90;;;;;;4909555;29;20026;-63
2022/12/24 06:58:05;;;;;;;;;;;9.70;99.90;;;;;;4910391;28;19927;-62
2022/12/24 07:00:33;;;;;;;;;;;9.70;99.90;;;;;;4909301;29;19963;-62
2022/12/24 07:03:00;;;;;;;;;;;9.70;99.90;;;;;;4907314;29;19937;-63
2022/12/24 07:05:28;;;;;;;;;;;9.70;99.90;;;;;;4910372;28;20012;-62
2022/12/24 07:07:56;;;;;;;;;;;9.70;99.90;;;;;;4908158;28;20000;-62
2022/12/24 07:10:24;;;;;;;;;;;9.80;99.90;;;;;;4906152;29;19942;-63
2022/12/24 07:12:51;;;;;;;;;;;9.70;99.90;;;;;;4906616;29;20018;-62
2022/12/24 07:15:21;;;;;;;;;;;9.80;99.90;;;;;;4910438;28;19966;-62
2022/12/24 07:17:48;;;;;;;;;;;9.80;99.90;;;;;;4909100;28;20026;-62
2022/12/24 07:20:16;;;;;;;;;;;9.80;99.90;;;;;;4910052;28;19927;-62
2022/12/24 07:22:44;;;;;;;;;;;9.80;99.90;;;;;;4910476;28;20009;-62
2022/12/24 07:25:12;;;;;;;;;;;9.80;99.90;;;;;;4908350;29;20017;-62
2022/12/24 07:27:39;;;;;;;;;;;9.70;99.90;;;;;;4909355;28;20274;-63
2022/12/24 07:30:08;;;;;;;;;;;9.70;99.90;;;;;;4906807;28;19938;-63
2022/12/24 07:32:37;;;;;;;;;;;9.60;99.90;;;;;;4910671;28;20022;-63
2022/12/24 07:35:05;;;;;;;;;;;9.50;99.90;;;;;;4908559;29;19934;-62
2022/12/24 07:37:33;;;;;;;;;;;9.50;99.90;;;;;;4920222;28;20392;-62
2022/12/24 07:40:00;;;;;;;;;;;9.40;99.90;;;;;;4926417;28;19933;-62
2022/12/24 07:42:28;;;;;;;;;;;9.40;99.90;;;;;;4927923;29;19934;-62
2022/12/24 07:44:56;;;;;;;;;;;9.40;99.90;;;;;;4923197;29;19935;-62
2022/12/24 07:47:23;;;;;;;;;;;9.40;99.90;;;;;;4928936;28;20312;-63
2022/12/24 07:49:52;;;;;;;;;;;9.40;99.90;;;;;;4927230;29;19941;-63
2022/12/24 07:52:20;;;;;;;;;;;9.40;99.90;;;;;;4927759;28;19965;-63
2022/12/24 07:54:48;;;;;;;;;;;9.40;99.90;;;;;;4929406;29;19927;-63
2022/12/24 07:57:16;;;;;;;;;;;9.40;99.90;;;;;;4927919;29;19927;-63
2022/12/24 07:59:43;;;;;;;;;;;9.40;99.90;;;;;;4923342;29;19933;-63
2022/12/24 08:02:11;;;;;;;;;;;9.40;99.90;;;;;;4927338;28;19926;-63
2022/12/24 08:04:44;;;;;;;;;;;9.40;99.90;;;;;;4927643;29;19933;-63
2022/12/24 08:07:13;;;;;;;;;;;9.40;99.90;;;;;;4925045;29;20033;-63
2022/12/24 08:09:41;;;;;;;;;;;9.40;99.90;;;;;;4927751;29;19927;-63
2022/12/24 08:12:09;;;;;;;;;;;9.40;99.90;;;;;;4928735;28;20026;-62
2022/12/24 08:14:37;;;;;;;;;;;9.40;99.90;;;;;;4926852;28;19937;-63
2022/12/24 08:17:04;;;;;;;;;;;9.40;99.90;;;;;;4936401;28;20314;-63
2022/12/24 08:19:32;;;;;;;;;;;9.40;99.90;;;;;;4933953;28;20485;-62
2022/12/24 08:21:59;;;;;;;;;;;9.40;99.90;;;;;;4927994;28;20391;-63
2022/12/24 08:24:28;;;;;;;;;;;9.40;99.90;;;;;;4926435;29;20379;-62
2022/12/24 08:26:56;;;;;;;;;;;9.40;99.90;;;;;;4938976;28;19930;-63
2022/12/24 08:29:24;;;;;;;;;;;9.40;99.90;;;;;;4934287;28;20391;-62
2022/12/24 08:31:51;;;;;;;;;;;9.40;99.90;;;;;;4933044;28;19931;-63
2022/12/24 08:34:19;;;;;;;;;;;9.30;99.90;;;;;;4934137;28;19934;-62
2022/12/24 08:36:47;;;;;;;;;;;9.30;99.90;;;;;;4928622;28;19958;-63
2022/12/24 08:39:15;;;;;;;;;;;9.40;99.90;;;;;;4928918;28;19937;-63
2022/12/24 08:41:44;;;;;;;;;;;9.40;99.90;;;;;;4936326;28;19935;-62
2022/12/24 08:44:11;;;;;;;;;;;9.40;99.90;;;;;;4930704;28;19927;-63
2022/12/24 08:46:39;;;;;;;;;;;9.50;99.90;;;;;;4925292;28;19935;-63
2022/12/24 08:49:07;;;;;;;;;;;9.50;99.90;;;;;;4929658;28;19981;-63
2022/12/24 08:51:35;;;;;;;;;;;9.60;99.90;;;;;;4927485;28;19993;-64
2022/12/24 08:54:02;;;;;;;;;;;9.60;99.90;;;;;;4928675;28;19961;-63
2022/12/24 08:56:30;;;;;;;;;;;9.70;99.90;;;;;;4930647;28;20400;-63
2022/12/24 08:58:59;;;;;;;;;;;9.70;99.90;;;;;;4930730;28;19933;-63
2022/12/24 09:01:27;;;;;;;;;;;9.70;99.90;;;;;;4928079;28;20686;-63
2022/12/24 09:03:54;;;;;;;;;;;9.70;99.90;;;;;;4942432;28;19931;-63
2022/12/24 09:06:22;;;;;;;;;;;9.80;99.90;;;;;;4930377;28;20014;-64
2022/12/24 09:08:50;;;;;;;;;;;9.70;99.90;;;;;;4925645;29;19935;-63
2022/12/24 09:11:19;;;;;;;;;;;9.70;99.90;;;;;;4929481;28;20017;-62
2022/12/24 09:13:46;;;;;;;;;;;9.70;99.90;;;;;;4930178;29;20005;-63
2022/12/24 09:16:15;;;;;;;;;;;9.60;99.90;;;;;;4935630;28;19927;-63
2022/12/24 09:18:43;;;;;;;;;;;9.60;99.90;;;;;;4932700;28;19927;-63
2022/12/24 09:21:13;;;;;;;;;;;9.60;99.90;;;;;;4929847;28;20352;-63
2022/12/24 09:23:42;;;;;;;;;;;9.60;99.90;;;;;;4931056;28;19927;-63
2022/12/24 09:26:12;;;;;;;;;;;9.70;99.90;;;;;;4927984;28;20026;-63
2022/12/24 09:28:40;;;;;;;;;;;9.70;99.90;;;;;;4929429;28;19926;-63
2022/12/24 09:31:08;;;;;;;;;;;9.80;99.90;;;;;;4931703;28;20030;-62
2022/12/24 09:33:38;;;;;;;;;;;9.80;99.90;;;;;;4935655;28;19925;-63
2022/12/24 09:36:07;;;;;;;;;;;9.80;99.90;;;;;;4929514;28;19926;-62
2022/12/24 09:38:35;;;;;;;;;;;9.90;99.90;;;;;;4928982;29;19977;-63
2022/12/24 09:41:10;;;;;;;;;;;10.00;99.90;;;;;;4934473;28;19973;-63
2022/12/24 09:43:38;;;;;;;;;;;10.00;99.90;;;;;;4925599;29;20888;-63
2022/12/24 09:46:09;;;;;;;;;;;10.10;99.90;;;;;;4932070;28;19926;-63
2022/12/24 09:48:40;;;;;;;;;;;10.20;99.90;;;;;;4923518;29;19931;-63
2022/12/24 09:51:09;;;;;;;;;;;10.10;99.90;;;;;;4940977;28;20472;-63
2022/12/24 09:53:40;;;;;;;;;;;10.10;99.90;;;;;;4922175;28;19931;-63
2022/12/24 09:56:12;;;;;;;;;;;10.10;99.90;;;;;;4925271;28;20287;-64
2022/12/24 09:58:41;;;;;;;;;;;10.20;99.90;;;;;;4929378;29;19927;-63
2022/12/24 10:01:11;;;;;;;;;;;10.20;99.90;;;;;;4939549;28;19938;-63
2022/12/24 10:03:41;;;;;;;;;;;10.20;99.90;;;;;;4927505;29;20306;-63
2022/12/24 10:06:10;;;;;;;;;;;10.30;99.90;;;;;;4968798;28;20411;-62
2022/12/24 10:08:43;;;;;;;;;;;10.30;99.90;;;;;;4933146;29;19926;-63
2022/12/24 10:11:15;;;;;;;;;;;10.40;99.90;;;;;;5024921;28;20289;-63
2022/12/24 10:13:54;;;;;;;;;;;10.50;99.90;;;;;;5033288;28;20027;-64
2022/12/24 10:16:24;;;;;;;;;;;10.50;99.90;;;;;;4982428;28;20457;-64
2022/12/24 10:18:56;;;;;;;;;;;10.50;99.90;;;;;;4929265;29;19934;-63
2022/12/24 10:21:29;;;;;;;;;;;10.50;99.90;;;;;;4932481;28;19933;-63
2022/12/24 10:24:00;;;;;;;;;;;10.50;99.90;;;;;;4930005;28;20314;-63
2022/12/24 10:26:30;;;;;;;;;;;10.50;99.90;;;;;;4928140;28;19927;-63
2022/12/24 10:29:00;;;;;;;;;;;10.50;99.90;;;;;;4928899;29;20026;-63
2022/12/24 10:31:29;;;;;;;;;;;10.50;99.90;;;;;;4927313;28;20017;-63
2022/12/24 10:34:01;;;;;;;;;;;10.50;99.90;;;;;;4926762;29;19970;-63
2022/12/24 10:36:29;;;;;;;;;;;10.60;99.90;;;;;;4926354;28;20029;-63
2022/12/24 10:38:57;;;;;;;;;;;10.60;99.90;;;;;;4935109;28;20400;-63
2022/12/24 10:41:26;;;;;;;;;;;10.60;99.90;;;;;;4929069;28;19934;-63
2022/12/24 10:43:54;;;;;;;;;;;10.70;99.90;;;;;;4920129;29;19934;-63
2022/12/24 10:46:23;;;;;;;;;;;10.70;99.90;;;;;;4921446;29;20434;-64
2022/12/24 10:48:52;;;;;;;;;;;10.70;99.90;;;;;;4923697;28;20009;-63
2022/12/24 10:51:26;;;;;;;;;;;10.60;99.90;;;;;;4927856;28;19927;-63
2022/12/24 10:53:56;;;;;;;;;;;10.60;99.90;;;;;;4928355;29;20422;-63
2022/12/24 10:56:24;;;;;;;;;;;10.60;99.90;;;;;;4928777;28;19927;-63
2022/12/24 10:58:53;;;;;;;;;;;10.70;99.90;;;;;;4928022;29;19938;-63
2022/12/24 11:01:40;;;;;;;;;;;10.70;99.90;;;;;;4928269;28;19933;-63
2022/12/24 11:04:14;;;;;;;;;;;10.70;99.90;;;;;;4935292;28;19934;-63
2022/12/24 11:06:51;;;;;;;;;;;10.70;99.90;;;;;;4929861;28;20025;-63
2022/12/24 11:09:21;;;;;;;;;;;10.70;99.90;;;;;;4927582;29;19928;-63
2022/12/24 11:11:48;;;;;;;;;;;10.70;99.90;;;;;;4927515;29;20017;-63
2022/12/24 11:14:17;;;;;;;;;;;10.60;99.90;;;;;;4928881;29;19931;-63
2022/12/24 11:16:49;;;;;;;;;;;10.60;99.90;;;;;;4938944;28;20000;-64
2022/12/24 11:19:18;;;;;;;;;;;10.60;99.90;;;;;;4925947;29;19931;-63
2022/12/24 11:21:47;;;;;;;;;;;10.60;99.90;;;;;;4928113;28;20924;-64
2022/12/24 11:24:23;;;;;;;;;;;10.70;99.90;;;;;;4929810;29;19930;-64
2022/12/24 11:26:51;;;;;;;;;;;10.70;99.90;;;;;;4928179;28;20021;-63
2022/12/24 11:29:20;;;;;;;;;;;10.80;99.90;;;;;;4928558;28;20315;-64
2022/12/24 11:31:48;;;;;;;;;;;10.80;99.90;;;;;;4927235;28;19933;-65
2022/12/24 11:34:26;;;;;;;;;;;10.90;99.90;;;;;;4928866;28;19937;-66
2022/12/24 11:37:06;;;;;;;;;;;11.00;99.90;;;;;;4927886;28;19930;-65
2022/12/24 11:39:43;;;;;;;;;;;11.00;99.90;;;;;;4928379;29;20021;-65
2022/12/24 11:42:22;;;;;;;;;;;11.10;99.90;;;;;;4931543;29;19927;-65
2022/12/24 11:44:50;;;;;;;;;;;11.20;99.90;;;;;;4930463;28;19946;-65
2022/12/24 11:47:31;;;;;;;;;;;11.30;99.90;;;;;;4931351;28;19927;-65
2022/12/24 11:50:19;;;;;;;;;;;11.30;99.90;;;;;;4930931;28;19931;-65
2022/12/24 11:52:49;;;;;;;;;;;11.40;99.90;;;;;;4929505;29;20018;-65
2022/12/24 11:55:19;;;;;;;;;;;11.40;99.90;;;;;;4931750;29;19927;-65
2022/12/24 11:57:54;;;;;;;;;;;11.50;99.90;;;;;;4931187;29;19927;-65
2022/12/24 12:00:22;;;;;;;;;;;11.60;99.90;;;;;;4930809;29;20376;-64
2022/12/24 12:02:51;;;;;;;;;;;11.90;99.90;;;;;;4924682;29;20013;-65
2022/12/24 12:05:21;;;;;;;;;;;12.40;99.90;;;;;;4931138;29;19981;-65
2022/12/24 12:07:53;;;;;;;;;;;12.50;99.90;;;;;;4931920;28;19926;-65
2022/12/24 12:10:22;;;;;;;;;;;12.50;99.90;;;;;;4926318;29;20392;-65
2022/12/24 12:12:54;;;;;;;;;;;12.60;99.90;;;;;;4931447;29;20321;-64
2022/12/24 12:15:24;;;;;;;;;;;12.70;99.90;;;;;;4929805;29;19977;-64
2022/12/24 12:17:54;;;;;;;;;;;12.80;99.90;;;;;;4929593;29;19927;-63
2022/12/24 12:20:23;;;;;;;;;;;12.60;99.90;;;;;;4930814;28;20069;-64
2022/12/24 12:22:57;;;;;;;;;;;12.40;99.90;;;;;;4925032;28;19935;-64
2022/12/24 12:25:27;;;;;;;;;;;12.30;99.90;;;;;;4930692;28;19927;-64
2022/12/24 12:27:55;;;;;;;;;;;12.30;99.90;;;;;;4928083;28;19927;-64
2022/12/24 12:30:24;;;;;;;;;;;12.30;99.90;;;;;;4929921;28;20475;-65
2022/12/24 12:32:55;;;;;;;;;;;12.30;99.90;;;;;;4926708;28;19931;-64
2022/12/24 12:35:24;;;;;;;;;;;12.20;99.90;;;;;;4931109;28;20025;-64
2022/12/24 12:37:56;;;;;;;;;;;12.10;99.90;;;;;;5011205;22;19931;-64
2022/12/24 12:40:28;;;;;;;;;;;12.00;99.90;;;;;;5047921;28;19932;-64
2022/12/24 12:43:00;;;;;;;;;;;11.90;99.90;;;;;;5047730;28;19935;-65
2022/12/24 12:45:34;;;;;;;;;;;11.80;99.90;;;;;;5049664;28;20062;-66
2022/12/24 12:48:12;;;;;;;;;;;11.80;99.90;;;;;;5046245;28;20019;-66
2022/12/24 12:50:42;;;;;;;;;;;11.70;99.90;;;;;;5046787;28;20025;-66
2022/12/24 12:53:20;;;;;;;;;;;11.60;99.90;;;;;;5043640;28;19925;-66
2022/12/24 12:55:50;;;;;;;;;;;11.60;99.90;;;;;;5045297;28;19939;-64
2022/12/24 12:58:22;;;;;;;;;;;11.50;99.90;;;;;;5050172;28;19925;-65
2022/12/24 13:00:52;;;;;;;;;;;11.50;99.90;;;;;;5043508;28;20011;-66
2022/12/24 13:03:32;;;;;;;;;;;11.50;99.90;;;;;;5049082;28;19925;-66
2022/12/24 13:06:18;;;;;;;;;;;11.50;99.90;;;;;;5045969;28;19936;-66
2022/12/24 13:09:03;;;;;;;;;;;11.50;99.90;;;;;;5030309;28;19929;-68
2022/12/24 13:11:36;;;;;;;;;;;11.50;99.90;;;;;;5048259;28;20313;-66
2022/12/24 13:14:16;;;;;;;;;;;11.70;99.90;;;;;;5042841;28;20078;-68
2022/12/24 13:17:11;;;;;;;;;;;11.70;99.90;;;;;;5051584;28;19932;-67
2022/12/24 13:19:47;;;;;;;;;;;11.80;99.90;;;;;;5042396;28;19932;-65
2022/12/24 13:22:16;;;;;;;;;;;11.80;99.90;;;;;;5042850;28;20376;-65
2022/12/24 13:24:49;;;;;;;;;;;11.80;99.90;;;;;;5045734;28;19960;-65
2022/12/24 13:27:20;;;;;;;;;;;11.80;99.90;;;;;;5050283;28;19933;-65
2022/12/24 13:29:53;;;;;;;;;;;11.90;99.90;;;;;;5044279;28;19929;-64
2022/12/24 13:32:37;;;;;;;;;;;11.90;99.90;;;;;;5046169;28;19961;-67
2022/12/24 13:35:25;;;;;;;;;;;12.00;99.90;;;;;;5041635;28;19935;-67
2022/12/24 13:37:53;;;;;;;;;;;12.20;99.90;;;;;;5042335;28;20357;-67
2022/12/24 13:40:25;;;;;;;;;;;12.20;99.90;;;;;;5046839;28;19925;-67
2022/12/24 13:43:07;;;;;;;;;;;12.30;99.90;;;;;;5044895;28;19931;-67
2022/12/24 13:45:45;;;;;;;;;;;12.30;99.90;;;;;;5046144;28;20468;-66
2022/12/24 13:48:14;;;;;;;;;;;12.30;99.90;;;;;;5051376;28;19979;-63
2022/12/24 13:50:44;;;;;;;;;;;12.30;99.90;;;;;;5062683;28;19924;-66
2022/12/24 13:53:20;;;;;;;;;;;12.20;99.90;;;;;;5057661;28;19925;-66
2022/12/24 13:55:51;;;;;;;;;;;12.10;99.90;;;;;;5047256;28;19925;-66
2022/12/24 13:58:20;;;;;;;;;;;12.00;99.90;;;;;;5052170;28;20027;-64
2022/12/24 14:00:52;;;;;;;;;;;11.90;99.90;;;;;;5052921;28;19935;-63
2022/12/24 14:03:25;;;;;;;;;;;11.80;99.90;;;;;;5054200;28;19924;-64
2022/12/24 14:05:55;;;;;;;;;;;11.80;99.90;;;;;;5053881;28;19929;-65
2022/12/24 14:08:28;;;;;;;;;;;11.80;99.90;;;;;;5052616;28;20317;-66
2022/12/24 14:10:59;;;;;;;;;;;11.80;99.90;;;;;;5053184;28;19924;-65
2022/12/24 14:13:46;;;;;;;;;;;11.80;99.90;;;;;;5037343;28;20390;-65
2022/12/24 14:16:15;;;;;;;;;;;11.80;99.90;;;;;;5034035;28;19948;-65
2022/12/24 14:18:43;;;;;;;;;;;11.80;99.90;;;;;;5033902;28;19933;-65
2022/12/24 14:21:16;;;;;;;;;;;11.70;99.90;;;;;;5033282;28;20386;-65
2022/12/24 14:23:45;;;;;;;;;;;11.70;99.90;;;;;;5045505;28;20457;-65
2022/12/24 14:26:16;;;;;;;;;;;11.70;99.90;;;;;;5053430;28;19932;-65
2022/12/24 14:28:46;;;;;;;;;;;11.70;99.90;;;;;;5052754;28;19932;-65
2022/12/24 14:31:15;;;;;;;;;;;11.70;99.90;;;;;;5032843;28;20465;-66
2022/12/24 14:33:44;;;;;;;;;;;11.70;99.90;;;;;;5033632;28;19983;-66
2022/12/24 14:36:13;;;;;;;;;;;11.70;99.90;;;;;;5033407;28;19932;-66
2022/12/24 14:38:42;;;;;;;;;;;11.60;99.90;;;;;;5033272;28;19925;-66
2022/12/24 14:41:16;;;;;;;;;;;11.60;99.90;;;;;;5032670;28;19969;-66
2022/12/24 14:43:50;;;;;;;;;;;11.60;99.90;;;;;;5033657;28;19924;-65
2022/12/24 14:46:22;;;;;;;;;;;11.40;99.90;;;;;;5033386;28;19929;-65